createdAt,value
2018-04-30T00:01:03.698Z,15.90
2018-04-30T00:03:34.632Z,15.80
2018-04-30T00:06:09.851Z,15.60
2018-04-30T00:08:40.561Z,15.40
2018-04-30T00:11:11.235Z,15.20
2018-04-30T00:13:42.575Z,15.00
2018-04-30T00:16:17.628Z,14.90
2018-04-30T00:18:48.629Z,14.70
2018-04-30T00:21:19.384Z,14.60
2018-04-30T00:23:54.157Z,14.50
2018-04-30T00:26:25.359Z,14.40
2018-04-30T00:28:56.521Z,14.30
2018-04-30T00:31:31.751Z,14.20
2018-04-30T00:34:02.664Z,14.10
2018-04-30T00:36:33.835Z,14.10
2018-04-30T00:39:04.104Z,14.20
2018-04-30T00:41:40.057Z,14.80
2018-04-30T00:44:15.293Z,15.00
2018-04-30T00:46:47.299Z,15.20
2018-04-30T00:49:22.111Z,15.10
2018-04-30T00:51:57.351Z,15.40
2018-04-30T00:54:38.998Z,15.70
2018-04-30T00:57:10.525Z,15.90
2018-04-30T00:59:45.626Z,15.90
2018-04-30T01:02:16.732Z,16.00
2018-04-30T01:04:48.765Z,16.20
2018-04-30T01:07:23.787Z,16.20
2018-04-30T01:09:54.933Z,16.30
2018-04-30T01:12:25.969Z,16.30
2018-04-30T01:14:56.862Z,16.20
2018-04-30T01:17:28.477Z,16.20
2018-04-30T01:20:03.067Z,16.10
2018-04-30T01:22:34.224Z,16.00
2018-04-30T01:25:05.179Z,16.00
2018-04-30T01:27:40.563Z,15.90
2018-04-30T01:30:15.636Z,15.80
2018-04-30T01:32:46.597Z,15.70
2018-04-30T01:35:21.517Z,15.70
2018-04-30T01:37:57.413Z,15.60
2018-04-30T01:40:30.281Z,15.50
2018-04-30T01:43:01.678Z,15.40
2018-04-30T01:45:32.894Z,15.40
2018-04-30T01:48:08.400Z,15.30
2018-04-30T01:50:39.401Z,15.20
2018-04-30T01:53:10.387Z,15.20
2018-04-30T01:55:45.263Z,15.00
2018-04-30T01:58:17.165Z,14.70
2018-04-30T02:00:48.617Z,14.60
2018-04-30T02:03:23.741Z,14.50
2018-04-30T02:05:58.457Z,14.30
2018-04-30T02:08:29.189Z,14.10
2018-04-30T02:11:00.245Z,13.90
2018-04-30T02:13:37.236Z,13.80
2018-04-30T02:16:12.323Z,13.70
2018-04-30T02:18:44.301Z,13.40
2018-04-30T02:21:16.542Z,13.30
2018-04-30T02:23:47.540Z,13.30
2018-04-30T02:26:18.674Z,13.30
2018-04-30T02:28:49.648Z,13.30
2018-04-30T02:31:24.173Z,13.10
2018-04-30T02:33:59.412Z,13.00
2018-04-30T02:36:30.403Z,12.80
2018-04-30T02:39:01.566Z,12.70
2018-04-30T02:41:36.165Z,12.50
2018-04-30T02:44:11.764Z,12.30
2018-04-30T02:46:42.905Z,12.20
2018-04-30T02:49:13.925Z,12.10
2018-04-30T02:51:49.681Z,11.90
2018-04-30T02:54:20.710Z,11.80
2018-04-30T02:56:51.499Z,11.80
2018-04-30T02:59:27.033Z,11.80
2018-04-30T03:02:02.047Z,11.70
2018-04-30T03:04:33.089Z,11.60
2018-04-30T03:07:03.621Z,11.50
2018-04-30T03:09:38.816Z,11.50
2018-04-30T03:12:13.841Z,11.40
2018-04-30T03:14:45.034Z,11.40
2018-04-30T03:17:19.920Z,11.30
2018-04-30T03:19:54.815Z,11.30
2018-04-30T03:22:25.601Z,11.20
2018-04-30T03:24:56.732Z,11.10
2018-04-30T03:27:31.737Z,11.00
2018-04-30T03:30:06.956Z,10.90
2018-04-30T03:32:37.927Z,10.90
2018-04-30T03:35:09.729Z,10.80
2018-04-30T03:37:44.758Z,10.80
2018-04-30T03:40:15.928Z,10.80
2018-04-30T03:42:48.039Z,10.70
2018-04-30T03:45:19.672Z,10.60
2018-04-30T03:47:54.789Z,10.70
2018-04-30T03:50:26.033Z,10.60
2018-04-30T03:52:57.481Z,10.60
2018-04-30T03:55:28.324Z,10.50
2018-04-30T03:58:04.264Z,10.60
2018-04-30T04:00:45.876Z,10.70
2018-04-30T04:03:27.081Z,10.80
2018-04-30T04:06:08.295Z,10.80
2018-04-30T04:08:43.544Z,10.90
2018-04-30T04:11:18.921Z,11.00
2018-04-30T04:13:54.541Z,11.00
2018-04-30T04:16:25.711Z,10.90
2018-04-30T04:18:56.811Z,11.00
2018-04-30T04:21:31.761Z,11.00
2018-04-30T04:24:06.735Z,11.10
2018-04-30T04:26:38.560Z,11.10
2018-04-30T04:29:09.564Z,11.10
2018-04-30T04:31:42.416Z,11.10
2018-04-30T04:34:19.505Z,11.20
2018-04-30T04:36:50.895Z,11.20
2018-04-30T04:39:21.603Z,11.20
2018-04-30T04:41:56.803Z,11.20
2018-04-30T04:44:27.775Z,11.30
2018-04-30T04:46:58.747Z,11.30
2018-04-30T04:49:31.020Z,11.40
2018-04-30T04:52:07.089Z,11.60
2018-04-30T04:54:38.310Z,11.80
2018-04-30T04:57:09.404Z,11.90
2018-04-30T04:59:45.106Z,12.00
2018-04-30T05:02:16.862Z,12.00
2018-04-30T05:04:48.023Z,12.00
2018-04-30T05:07:22.910Z,12.10
2018-04-30T05:09:57.742Z,12.30
2018-04-30T05:12:28.820Z,12.40
2018-04-30T05:15:00.596Z,12.70
2018-04-30T05:17:35.777Z,12.60
2018-04-30T05:20:11.004Z,12.80
2018-04-30T05:22:42.677Z,13.10
2018-04-30T05:25:19.323Z,13.30
2018-04-30T05:27:55.208Z,13.50
2018-04-30T05:30:26.688Z,13.40
2018-04-30T05:32:57.999Z,13.60
2018-04-30T05:35:34.091Z,13.70
2018-04-30T05:38:05.163Z,13.70
2018-04-30T05:40:36.994Z,14.20
2018-04-30T05:43:08.361Z,14.10
2018-04-30T05:45:43.405Z,14.40
2018-04-30T05:48:16.193Z,14.90
2018-04-30T05:50:47.407Z,14.90
2018-04-30T05:53:18.381Z,15.30
2018-04-30T05:55:54.236Z,16.30
2018-04-30T05:58:26.069Z,16.30
2018-04-30T06:00:56.925Z,17.00
2018-04-30T06:03:32.182Z,17.50
2018-04-30T06:06:07.057Z,18.10
2018-04-30T06:08:39.677Z,18.90
2018-04-30T06:11:11.875Z,18.80
2018-04-30T06:13:43.498Z,19.20
2018-04-30T06:16:17.933Z,19.40
2018-04-30T06:18:49.947Z,19.70
2018-04-30T06:21:26.067Z,20.00
2018-04-30T06:24:02.381Z,20.00
2018-04-30T06:26:34.074Z,20.30
2018-04-30T06:29:05.001Z,20.70
2018-04-30T06:31:40.135Z,20.80
2018-04-30T06:34:12.043Z,20.90
2018-04-30T06:36:43.557Z,21.10
2018-04-30T06:39:15.533Z,21.70
2018-04-30T06:41:51.595Z,21.80
2018-04-30T06:44:27.169Z,21.80
2018-04-30T06:46:59.671Z,22.20
2018-04-30T06:49:31.481Z,22.20
2018-04-30T06:52:07.244Z,22.00
2018-04-30T06:54:38.866Z,22.20
2018-04-30T06:57:10.270Z,22.20
2018-04-30T06:59:47.275Z,22.20
2018-04-30T07:02:22.760Z,22.10
2018-04-30T07:04:59.159Z,22.30
2018-04-30T07:07:31.299Z,22.30
2018-04-30T07:10:02.730Z,22.40
2018-04-30T07:12:34.333Z,22.50
2018-04-30T07:15:05.596Z,22.30
2018-04-30T07:17:41.659Z,22.00
2018-04-30T07:20:13.001Z,21.30
2018-04-30T07:22:44.644Z,21.20
2018-04-30T07:25:20.399Z,20.90
2018-04-30T07:27:56.318Z,20.70
2018-04-30T07:30:27.852Z,20.80
2018-04-30T07:32:59.261Z,20.50
2018-04-30T07:35:35.465Z,20.30
2018-04-30T07:38:07.243Z,20.10
2018-04-30T07:40:39.651Z,20.10
2018-04-30T07:43:13.143Z,20.30
2018-04-30T07:45:45.683Z,20.40
2018-04-30T07:48:22.001Z,20.20
2018-04-30T07:50:53.674Z,20.20
2018-04-30T07:53:31.018Z,20.30
2018-04-30T07:56:06.892Z,20.40
2018-04-30T10:47:04.630Z,18.80
2018-04-30T10:49:58.334Z,19.00
2018-04-30T10:52:35.704Z,18.90
2018-04-30T10:55:11.606Z,18.60
2018-04-30T10:57:43.261Z,18.90
2018-04-30T11:00:14.718Z,19.80
2018-04-30T11:02:53.268Z,19.90
2018-04-30T11:05:28.632Z,19.90
2018-04-30T11:07:59.950Z,19.80
2018-04-30T11:10:32.634Z,20.20
2018-04-30T11:13:10.310Z,20.30
2018-04-30T11:15:46.075Z,20.40
2018-04-30T11:18:37.491Z,20.80
2018-04-30T11:21:14.036Z,20.10
2018-04-30T11:23:46.612Z,20.00
2018-04-30T11:26:18.168Z,19.60
2018-04-30T11:28:49.698Z,19.50
2018-04-30T11:31:24.803Z,20.10
2018-04-30T11:33:56.273Z,20.80
2018-04-30T11:36:28.337Z,20.80
2018-04-30T11:39:01.775Z,21.20
2018-04-30T11:41:37.446Z,21.10
2018-04-30T11:44:08.802Z,20.70
2018-04-30T11:46:40.207Z,20.30
2018-04-30T11:49:11.980Z,20.40
2018-04-30T11:51:47.394Z,20.60
2018-04-30T11:54:18.822Z,20.50
2018-04-30T11:56:50.731Z,20.60
2018-04-30T11:59:22.088Z,20.60
2018-04-30T12:01:58.525Z,20.20
2018-04-30T12:04:30.680Z,19.60
2018-04-30T12:07:01.651Z,19.50
2018-04-30T12:09:37.403Z,19.90
2018-04-30T12:12:07.827Z,19.80
2018-04-30T12:14:39.435Z,19.30
2018-04-30T12:17:09.583Z,19.20
2018-04-30T12:19:44.761Z,18.90
2018-04-30T12:22:15.596Z,18.80
2018-04-30T12:24:46.675Z,18.30
2018-04-30T12:27:21.479Z,18.20
2018-04-30T12:29:57.159Z,18.10
2018-04-30T12:32:28.079Z,17.90
2018-04-30T12:34:58.802Z,17.90
2018-04-30T12:37:34.544Z,18.20
2018-04-30T12:40:08.509Z,18.80
2018-04-30T12:42:40.881Z,19.30
2018-04-30T12:45:12.151Z,19.30
2018-04-30T12:47:43.836Z,20.00
2018-04-30T12:50:14.800Z,19.90
2018-04-30T12:52:45.718Z,20.10
2018-04-30T12:55:16.803Z,20.30
2018-04-30T12:57:53.397Z,19.20
2018-04-30T13:00:25.138Z,18.70
2018-04-30T13:02:57.075Z,18.20
2018-04-30T13:05:32.781Z,18.20
2018-04-30T13:08:09.575Z,18.00
2018-04-30T13:10:40.517Z,17.80
2018-04-30T13:13:11.338Z,17.90
2018-04-30T13:15:46.220Z,17.80
2018-04-30T13:18:17.780Z,18.00
2018-04-30T13:20:48.758Z,17.70
2018-04-30T13:23:24.418Z,17.70
2018-04-30T13:25:56.554Z,17.80
2018-04-30T13:28:27.298Z,17.90
2018-04-30T13:30:58.992Z,19.30
2018-04-30T13:33:29.694Z,19.30
2018-04-30T13:36:07.322Z,19.80
2018-04-30T13:38:38.208Z,19.70
2018-04-30T13:41:09.764Z,19.50
2018-04-30T13:43:45.469Z,19.40
2018-04-30T13:46:17.016Z,19.60
2018-04-30T13:48:48.342Z,19.80
2018-04-30T13:51:19.153Z,19.80
2018-04-30T13:53:54.551Z,19.80
2018-04-30T13:56:26.013Z,19.90
2018-04-30T13:58:58.180Z,20.20
2018-04-30T14:01:35.128Z,19.90
2018-04-30T14:04:10.696Z,19.90
2018-04-30T14:06:42.303Z,19.80
2018-04-30T14:09:17.544Z,19.90
2018-04-30T14:11:53.604Z,19.60
2018-04-30T14:14:24.533Z,19.60
2018-04-30T14:16:56.140Z,19.50
2018-04-30T14:19:30.857Z,19.40
2018-04-30T14:22:04.973Z,19.50
2018-04-30T14:24:36.078Z,19.60
2018-04-30T14:27:12.040Z,19.80
2018-04-30T14:29:49.215Z,20.00
2018-04-30T14:32:20.726Z,19.90
2018-04-30T14:34:51.598Z,19.40
2018-04-30T14:37:28.875Z,19.60
2018-04-30T14:40:03.736Z,19.60
2018-04-30T14:42:35.267Z,19.80
2018-04-30T14:45:06.948Z,19.80
2018-04-30T14:47:45.401Z,19.80
2018-04-30T14:50:17.613Z,19.50
2018-04-30T14:52:49.925Z,19.30
2018-04-30T14:55:24.733Z,19.20
2018-04-30T14:57:55.577Z,19.30
2018-04-30T15:00:27.783Z,19.30
2018-04-30T15:02:59.516Z,19.40
2018-04-30T15:05:34.795Z,19.90
2018-04-30T15:08:12.203Z,20.20
2018-04-30T15:10:43.564Z,20.10
2018-04-30T15:13:14.951Z,19.90
2018-04-30T15:15:51.373Z,19.70
2018-04-30T15:18:23.021Z,19.70
2018-04-30T15:20:54.454Z,19.80
2018-04-30T15:23:29.823Z,19.40
2018-04-30T15:26:05.417Z,19.50
2018-04-30T15:28:36.361Z,19.40
2018-04-30T15:31:11.405Z,19.60
2018-04-30T15:33:43.334Z,19.40
2018-04-30T15:36:14.375Z,19.30
2018-04-30T15:38:45.329Z,19.40
2018-04-30T15:41:21.505Z,19.50
2018-04-30T15:43:56.527Z,19.30
2018-04-30T15:46:27.365Z,19.30
2018-04-30T15:49:02.033Z,19.30
2018-04-30T15:51:39.144Z,18.90
2018-04-30T15:54:14.006Z,18.90
2018-04-30T15:56:44.887Z,18.70
2018-04-30T15:59:20.880Z,18.40
2018-04-30T16:01:51.593Z,18.40
2018-04-30T16:04:22.645Z,18.50
2018-04-30T16:06:53.441Z,18.60
2018-04-30T16:09:24.353Z,18.60
2018-04-30T16:11:59.116Z,18.60
2018-04-30T16:14:30.255Z,18.50
2018-04-30T16:17:01.805Z,18.60
2018-04-30T16:19:37.538Z,18.60
2018-04-30T16:22:09.359Z,18.50
2018-04-30T16:24:40.293Z,18.40
2018-04-30T16:27:10.855Z,18.50
2018-04-30T16:29:46.147Z,18.50
2018-04-30T16:32:16.818Z,18.50
2018-04-30T16:34:47.968Z,18.60
2018-04-30T16:37:23.163Z,18.90
2018-04-30T16:39:58.824Z,19.10
2018-04-30T16:42:29.559Z,19.10
2018-04-30T16:45:00.463Z,19.10
2018-04-30T16:47:36.458Z,18.80
2018-04-30T16:50:12.295Z,18.80
2018-04-30T16:52:44.886Z,18.60
2018-04-30T16:55:20.284Z,18.60
2018-04-30T16:57:55.442Z,18.60
2018-04-30T17:00:26.508Z,18.40
2018-04-30T17:03:01.048Z,18.10
2018-04-30T17:05:36.512Z,17.90
2018-04-30T17:08:11.773Z,18.10
2018-04-30T17:10:42.753Z,18.10
2018-04-30T17:13:14.489Z,17.90
2018-04-30T17:15:49.500Z,17.80
2018-04-30T17:18:19.992Z,17.80
2018-04-30T17:20:50.834Z,17.80
2018-04-30T17:23:26.369Z,17.70
2018-04-30T17:26:02.594Z,17.80
2018-04-30T17:28:34.152Z,17.80
2018-04-30T17:31:09.480Z,17.70
2018-04-30T17:33:45.538Z,17.30
2018-04-30T17:36:16.820Z,17.10
2018-04-30T17:38:47.734Z,17.10
2018-04-30T17:41:23.290Z,16.90
2018-04-30T17:43:58.134Z,16.80
2018-04-30T17:46:29.086Z,16.80
2018-04-30T17:49:00.106Z,16.80
2018-04-30T17:51:35.292Z,16.70
2018-04-30T17:54:09.331Z,16.60
2018-04-30T17:56:40.568Z,16.70
2018-04-30T17:59:11.400Z,16.90
2018-04-30T18:01:46.494Z,17.00
2018-04-30T18:04:18.070Z,16.70
2018-04-30T18:06:49.067Z,16.40
2018-04-30T18:09:25.217Z,16.00
2018-04-30T18:11:59.772Z,15.60
2018-04-30T18:14:30.751Z,15.30
2018-04-30T18:17:02.778Z,14.90
2018-04-30T18:19:39.169Z,14.60
2018-04-30T18:22:14.268Z,14.30
2018-04-30T18:24:45.152Z,14.10
2018-04-30T18:27:19.862Z,14.00
2018-04-30T18:29:55.739Z,13.80
2018-04-30T18:32:27.499Z,13.40
2018-04-30T18:34:59.150Z,13.20
2018-04-30T18:37:34.092Z,13.10
2018-04-30T18:40:08.706Z,12.80
2018-04-30T18:42:39.617Z,12.70
2018-04-30T18:45:10.696Z,12.60
2018-04-30T18:47:47.110Z,12.30
2018-04-30T18:50:21.718Z,12.20
2018-04-30T18:52:52.722Z,12.10
2018-04-30T18:55:27.646Z,12.00
2018-04-30T18:58:02.552Z,11.90
2018-04-30T19:00:33.305Z,11.70
2018-04-30T19:03:04.084Z,11.50
2018-04-30T19:05:38.942Z,11.40
2018-04-30T19:08:09.171Z,11.30
2018-04-30T19:10:40.455Z,11.10
2018-04-30T19:13:12.413Z,11.00
2018-04-30T19:15:49.082Z,10.80
2018-04-30T19:18:20.045Z,10.80
2018-04-30T19:20:54.640Z,10.70
2018-04-30T19:23:29.336Z,10.60
2018-04-30T19:26:04.025Z,10.50
2018-04-30T19:28:34.990Z,10.40
2018-04-30T19:31:07.784Z,10.30
2018-04-30T19:33:38.794Z,10.20
2018-04-30T19:36:08.929Z,10.10
2018-04-30T19:38:39.761Z,10.10
2018-04-30T19:41:10.560Z,10.00
2018-04-30T19:43:46.996Z,9.80
2018-04-30T19:46:17.129Z,9.70
2018-04-30T19:48:48.137Z,9.80
2018-04-30T19:51:19.047Z,9.70
2018-04-30T19:53:49.790Z,9.60
2018-04-30T19:56:20.583Z,9.50
2018-04-30T19:58:52.277Z,9.50
2018-04-30T20:01:29.324Z,9.40
2018-04-30T20:04:00.242Z,9.40
2018-04-30T20:06:31.395Z,9.40
2018-04-30T20:09:02.375Z,9.30
2018-04-30T20:11:37.246Z,9.30
2018-04-30T20:14:12.383Z,9.20
2018-04-30T20:16:43.080Z,9.20
2018-04-30T20:19:17.691Z,9.20
2018-04-30T20:21:49.299Z,9.20
2018-04-30T20:24:21.382Z,9.30
2018-04-30T20:26:53.041Z,9.20
2018-04-30T20:29:28.857Z,9.20
2018-04-30T20:32:03.599Z,9.10
2018-04-30T20:34:33.996Z,9.10
2018-04-30T20:37:05.416Z,9.10
2018-04-30T20:39:36.568Z,9.00
2018-04-30T20:42:08.407Z,9.00
2018-04-30T20:44:41.043Z,8.90
2018-04-30T20:47:12.123Z,8.90
2018-04-30T20:49:48.429Z,8.80
2018-04-30T20:52:21.072Z,8.60
2018-04-30T20:54:52.682Z,8.50
2018-04-30T20:57:23.676Z,8.50
2018-04-30T20:59:58.425Z,8.50
2018-04-30T21:02:29.227Z,8.60
2018-04-30T21:05:00.807Z,8.70
2018-04-30T21:07:35.304Z,8.60
2018-04-30T21:10:06.261Z,8.60
2018-04-30T21:12:37.071Z,8.50
2018-04-30T21:15:07.780Z,8.60
2018-04-30T21:17:42.547Z,8.50
2018-04-30T21:20:17.517Z,8.50
2018-04-30T21:22:48.327Z,8.40
2018-04-30T21:25:23.481Z,8.40
2018-04-30T21:27:54.566Z,8.30
2018-04-30T21:30:26.197Z,8.30
2018-04-30T21:32:57.065Z,8.30
2018-04-30T21:35:31.694Z,8.30
2018-04-30T21:38:07.220Z,8.20
2018-04-30T21:40:38.443Z,8.10
2018-04-30T21:43:14.428Z,8.00
2018-04-30T21:45:49.289Z,8.00
2018-04-30T21:48:19.506Z,7.90
2018-04-30T21:50:50.836Z,7.80
2018-04-30T21:53:26.462Z,7.70
2018-04-30T21:56:01.630Z,7.60
2018-04-30T21:58:33.256Z,7.60
2018-04-30T22:01:04.048Z,7.50
2018-04-30T22:03:40.586Z,7.40
2018-04-30T22:06:15.800Z,7.40
2018-04-30T22:08:46.622Z,7.30
2018-04-30T22:11:22.048Z,7.20
2018-04-30T22:13:57.812Z,7.10
2018-04-30T22:16:28.730Z,7.10
2018-04-30T22:19:00.581Z,7.10
2018-04-30T22:21:35.500Z,7.10
2018-04-30T22:24:10.754Z,7.20
2018-04-30T22:26:42.614Z,7.30
2018-04-30T22:29:18.218Z,7.30
2018-04-30T22:31:53.365Z,7.60
2018-04-30T22:34:25.014Z,7.90
2018-04-30T22:36:56.266Z,7.80
2018-04-30T22:39:31.032Z,7.90
2018-04-30T22:42:07.380Z,7.90
2018-04-30T22:44:38.298Z,7.80
2018-04-30T22:47:09.370Z,8.00
2018-04-30T22:49:45.177Z,8.10
2018-04-30T22:52:16.047Z,8.00
2018-04-30T22:54:48.091Z,8.20
2018-04-30T22:57:18.536Z,8.20
2018-04-30T22:59:54.086Z,8.50
2018-04-30T23:02:25.096Z,8.40
2018-04-30T23:04:56.236Z,8.60
2018-04-30T23:07:31.231Z,8.60
2018-04-30T23:10:06.921Z,8.80
2018-04-30T23:12:38.086Z,8.70
2018-04-30T23:15:10.016Z,8.90
2018-04-30T23:17:42.572Z,9.00
2018-04-30T23:20:18.092Z,9.10
2018-04-30T23:22:49.997Z,9.20
2018-04-30T23:25:25.544Z,9.10
2018-04-30T23:28:02.078Z,9.20
2018-04-30T23:30:33.930Z,9.30
2018-04-30T23:33:05.925Z,9.30
2018-04-30T23:35:40.747Z,9.20
2018-04-30T23:38:15.112Z,9.30
2018-04-30T23:40:46.324Z,9.30
2018-04-30T23:43:21.300Z,9.30
2018-04-30T23:45:55.993Z,9.20
2018-04-30T23:48:27.058Z,9.20
2018-04-30T23:50:58.056Z,9.30
2018-04-30T23:53:33.093Z,9.40
2018-04-30T23:56:07.054Z,9.40
2018-04-30T23:58:38.282Z,9.50
